Time;durP1;ratioP1;P1;durP2;ratioP2;P2;SDS_P1;SDS_P2;PMS_P1;PMS_P2;Temp;Humidity;BMP_temperature;BMP_pressure;BME280_temperature;BME280_humidity;BME280_pressure;Samples;Min_cycle;Max_cycle;Signal;HPM_P1;HPM_P2
2023/09/18 00:00:15;;;;;;;16.03;14.63;;;;;;;19.66;79.49;100724.28;4999750;28;20525;-68
2023/09/18 00:02:45;;;;;;;14.20;13.10;;;;;;;19.58;80.13;100713.81;5001490;28;20409;-67
2023/09/18 00:05:15;;;;;;;15.03;13.53;;;;;;;19.57;80.77;100717.63;5000581;28;20461;-67
2023/09/18 00:07:45;;;;;;;14.67;13.50;;;;;;;19.52;80.55;100713.78;5004493;28;20426;-67
2023/09/18 00:10:14;;;;;;;14.30;13.20;;;;;;;19.61;80.41;100713.25;5010324;28;20434;-68
2023/09/18 00:12:43;;;;;;;14.50;13.20;;;;;;;19.51;80.78;100711.28;5003746;28;20453;-67
2023/09/18 00:15:15;;;;;;;13.10;12.00;;;;;;;19.37;81.54;100705.41;5000473;28;20438;-68
2023/09/18 00:17:46;;;;;;;14.17;12.90;;;;;;;19.54;81.17;100713.53;4996291;28;20445;-67
2023/09/18 00:20:17;;;;;;;13.33;12.23;;;;;;;19.64;80.77;100708.09;5001741;28;20429;-67
2023/09/18 00:22:49;;;;;;;14.97;13.77;;;;;;;19.57;81.14;100707.50;4998502;28;20404;-68
2023/09/18 00:25:18;;;;;;;14.00;12.50;;;;;;;19.60;81.05;100706.16;4995449;28;20423;-68
2023/09/18 00:27:47;;;;;;;14.93;13.60;;;;;;;19.46;81.40;100708.53;4992324;28;20495;-66
2023/09/18 00:30:17;;;;;;;15.17;13.87;;;;;;;19.63;80.85;100694.63;4982478;28;20833;-66
2023/09/18 00:32:49;;;;;;;14.47;13.27;;;;;;;19.48;81.49;100698.09;4990518;28;20404;-67
2023/09/18 00:35:19;;;;;;;14.50;13.20;;;;;;;19.48;81.74;100693.44;4999572;28;20531;-66
2023/09/18 00:37:48;;;;;;;12.87;11.77;;;;;;;19.48;81.55;100703.59;4988236;28;20449;-65
2023/09/18 00:40:17;;;;;;;15.00;13.20;;;;;;;19.37;82.55;100697.19;4995285;28;20436;-67
2023/09/18 00:42:47;;;;;;;13.13;12.13;;;;;;;19.38;82.44;100693.34;4987834;28;20819;-65
2023/09/18 00:45:16;;;;;;;14.47;13.33;;;;;;;19.48;82.01;100684.38;4991766;28;21014;-66
2023/09/18 00:47:47;;;;;;;12.20;11.27;;;;;;;19.37;82.13;100680.72;4997939;28;20458;-65
2023/09/18 00:50:16;;;;;;;14.00;12.90;;;;;;;19.32;82.95;100672.44;4986554;28;20412;-67
2023/09/18 00:52:46;;;;;;;13.63;12.53;;;;;;;19.29;83.16;100677.66;4994696;28;20443;-66
2023/09/18 00:55:15;;;;;;;13.77;12.47;;;;;;;19.43;82.25;100670.59;4989386;28;20474;-68
2023/09/18 00:57:45;;;;;;;13.30;12.10;;;;;;;19.35;82.64;100671.13;5000241;28;20418;-67
2023/09/18 01:00:17;;;;;;;13.97;12.87;;;;;;;19.26;82.87;100672.72;4990511;28;20460;-66
2023/09/18 01:02:48;;;;;;;13.67;12.47;;;;;;;19.27;83.39;100677.91;4989671;28;20441;-66
2023/09/18 01:05:19;;;;;;;13.93;12.73;;;;;;;19.31;82.88;100681.81;4984211;28;20473;-67
2023/09/18 01:07:48;;;;;;;13.37;12.00;;;;;;;19.21;83.63;100681.72;4998056;28;20424;-65
2023/09/18 01:10:18;;;;;;;13.70;12.50;;;;;;;19.12;83.72;100675.09;4998555;28;20396;-67
2023/09/18 01:12:53;;;;;;;13.03;11.93;;;;;;;19.13;83.92;100673.97;4986710;28;20508;-67
2023/09/18 01:15:31;;;;;;;12.93;11.83;;;;;;;19.25;83.20;100671.88;4988814;28;20489;-65
2023/09/18 01:18:04;;;;;;;12.00;11.10;;;;;;;19.32;82.80;100672.44;4997741;28;20429;-67
2023/09/18 01:20:33;;;;;;;11.40;10.37;;;;;;;19.24;82.95;100669.38;4988782;28;20962;-67
2023/09/18 01:23:04;;;;;;;13.37;12.03;;;;;;;19.27;83.22;100658.69;4991441;28;20423;-67
2023/09/18 01:25:34;;;;;;;12.60;11.53;;;;;;;19.12;84.05;100657.81;4998905;28;20423;-67
2023/09/18 01:28:03;;;;;;;11.90;11.00;;;;;;;19.10;84.32;100666.28;4987911;28;20428;-67
2023/09/18 01:30:34;;;;;;;12.00;11.13;;;;;;;19.04;84.25;100665.41;4993162;28;20436;-67
2023/09/18 01:33:05;;;;;;;12.83;11.73;;;;;;;19.00;84.77;100653.31;4985115;28;20452;-66
2023/09/18 01:35:35;;;;;;;13.43;12.33;;;;;;;19.08;84.38;100655.56;5002233;28;20816;-66
2023/09/18 01:38:06;;;;;;;12.93;11.77;;;;;;;19.00;84.74;100649.75;4991018;28;20428;-67
2023/09/18 01:40:36;;;;;;;12.43;11.27;;;;;;;18.80;85.81;100658.66;4996192;28;20490;-66
2023/09/18 01:43:05;;;;;;;11.57;10.63;;;;;;;18.71;86.95;100648.44;4992948;28;20404;-66
2023/09/18 01:45:34;;;;;;;12.17;11.07;;;;;;;18.77;86.49;100647.41;4992519;28;20524;-67
2023/09/18 01:48:06;;;;;;;13.57;12.13;;;;;;;18.74;86.94;100648.72;4997836;28;20840;-68
2023/09/18 01:50:37;;;;;;;13.83;12.63;;;;;;;18.61;87.64;100647.25;4994164;28;20927;-67
2023/09/18 01:53:08;;;;;;;13.50;12.50;;;;;;;18.57;88.60;100648.88;4995938;28;20466;-67
2023/09/18 01:55:37;;;;;;;13.27;12.17;;;;;;;18.52;88.14;100656.19;4995913;28;20456;-67
2023/09/18 01:58:06;;;;;;;13.50;12.13;;;;;;;18.48;88.95;100655.06;4992380;28;20767;-66
2023/09/18 02:00:37;;;;;;;12.70;11.40;;;;;;;18.41;89.31;100649.78;4998978;28;20459;-67
2023/09/18 02:03:07;;;;;;;13.87;12.50;;;;;;;18.63;87.99;100636.88;4994178;28;20404;-67
2023/09/18 02:05:56;;;;;;;11.77;10.57;;;;;;;18.66;87.57;100625.38;4990196;28;20439;-66
2023/09/18 02:08:27;;;;;;;12.23;11.30;;;;;;;18.70;87.33;100616.63;4998629;28;20854;-68
2023/09/18 02:10:56;;;;;;;15.20;13.80;;;;;;;18.73;87.04;100610.63;4993159;28;20988;-65
2023/09/18 02:13:25;;;;;;;12.03;11.03;;;;;;;18.69;87.16;100606.78;4982478;28;20450;-67
2023/09/18 02:15:56;;;;;;;13.67;12.57;;;;;;;18.62;87.43;100602.34;4990382;28;20525;-65
2023/09/18 02:18:25;;;;;;;13.80;12.33;;;;;;;18.57;88.00;100599.56;4992102;28;20426;-65
2023/09/18 02:20:54;;;;;;;13.57;12.40;;;;;;;18.55;87.80;100590.75;4992986;28;20483;-67
2023/09/18 02:23:23;;;;;;;12.60;11.50;;;;;;;18.62;87.23;100594.13;4998767;28;20919;-67
2023/09/18 02:25:59;;;;;;;13.13;12.13;;;;;;;18.72;87.08;100590.63;4999552;28;20528;-67
2023/09/18 02:28:28;;;;;;;16.50;11.77;;;;;;;18.56;87.90;100592.41;4993841;28;20426;-67
2023/09/18 02:30:57;;;;;;;13.27;12.07;;;;;;;18.49;88.67;100582.75;4985865;28;20434;-66
2023/09/18 02:33:26;;;;;;;12.20;11.20;;;;;;;18.39;89.34;100571.69;4989699;28;20484;-66
2023/09/18 02:35:56;;;;;;;12.37;11.37;;;;;;;18.35;89.42;100579.59;4993630;28;20416;-66
2023/09/18 02:38:25;;;;;;;13.43;12.13;;;;;;;18.47;89.17;100577.53;4993287;28;20518;-66
2023/09/18 02:40:54;;;;;;;13.07;12.07;;;;;;;18.35;89.83;100578.78;4997541;28;20433;-66
2023/09/18 02:43:25;;;;;;;13.93;12.07;;;;;;;18.30;90.23;100573.28;4990946;28;20419;-66
2023/09/18 02:45:54;;;;;;;12.83;11.53;;;;;;;18.18;90.38;100568.78;4996081;28;20432;-66
2023/09/18 02:48:23;;;;;;;12.73;11.73;;;;;;;18.08;91.31;100559.63;4995929;28;20419;-67
2023/09/18 02:50:52;;;;;;;13.43;12.37;;;;;;;18.15;91.51;100563.00;4992195;28;20416;-65
2023/09/18 02:53:23;;;;;;;12.03;10.93;;;;;;;18.39;89.91;100564.31;4995573;28;20451;-66
2023/09/18 02:55:53;;;;;;;13.33;12.20;;;;;;;18.31;89.85;100552.97;4986353;28;20473;-66
2023/09/18 02:58:26;;;;;;;16.03;12.00;;;;;;;18.19;90.86;100553.19;4996603;28;20428;-66
2023/09/18 03:00:59;;;;;;;12.33;11.27;;;;;;;18.07;91.81;100549.75;4995758;28;20445;-66
2023/09/18 03:03:30;;;;;;;11.27;10.30;;;;;;;18.10;91.54;100549.25;4995783;28;20500;-67
2023/09/18 03:06:06;;;;;;;11.93;11.00;;;;;;;18.18;91.41;100551.50;4992812;28;20474;-67
2023/09/18 03:08:35;;;;;;;13.70;12.50;;;;;;;18.00;92.07;100538.22;4988868;28;20464;-67
2023/09/18 03:11:13;;;;;;;12.40;11.40;;;;;;;18.08;92.23;100535.00;4993894;28;20441;-67
2023/09/18 03:13:47;;;;;;;12.90;11.70;;;;;;;18.01;92.59;100539.88;5008870;28;21021;-66
2023/09/18 03:16:18;;;;;;;14.13;12.63;;;;;;;18.08;91.62;100527.59;4983278;28;20462;-66
2023/09/18 03:18:48;;;;;;;12.90;11.70;;;;;;;18.05;92.23;100536.34;5001183;28;20406;-69
2023/09/18 03:21:18;;;;;;;12.10;10.90;;;;;;;17.96;92.68;100537.09;4996032;28;20412;-66
2023/09/18 03:23:47;;;;;;;12.43;11.43;;;;;;;18.10;91.94;100538.31;4996009;28;20473;-67
2023/09/18 03:26:16;;;;;;;11.90;10.93;;;;;;;18.21;91.17;100534.56;4992952;28;20454;-68
2023/09/18 03:28:46;;;;;;;12.33;11.03;;;;;;;18.16;91.19;100531.78;4989425;28;20454;-67
2023/09/18 03:31:16;;;;;;;11.67;10.77;;;;;;;18.14;91.63;100532.06;4993903;28;20432;-66
2023/09/18 03:33:46;;;;;;;11.97;10.90;;;;;;;18.05;92.35;100530.88;4990418;28;21034;-66
2023/09/18 03:36:15;;;;;;;12.60;11.43;;;;;;;17.95;93.07;100528.03;4993649;28;20477;-67
2023/09/18 03:38:44;;;;;;;12.60;11.47;;;;;;;17.91;93.25;100528.81;4998804;28;20454;-67
2023/09/18 03:41:14;;;;;;;12.87;11.77;;;;;;;17.79;94.11;100521.59;4997724;28;20549;-68
2023/09/18 03:43:43;;;;;;;13.70;11.50;;;;;;;17.93;93.45;100524.72;4992986;28;20957;-66
2023/09/18 03:46:13;;;;;;;12.20;11.20;;;;;;;17.92;93.42;100524.97;4993439;28;20474;-67
2023/09/18 03:48:47;;;;;;;11.13;10.20;;;;;;;17.98;92.84;100529.41;4991587;28;20511;-66
2023/09/18 03:51:16;;;;;;;12.60;11.60;;;;;;;18.00;92.80;100519.88;4996399;28;20441;-66
2023/09/18 03:53:46;;;;;;;11.37;10.47;;;;;;;17.97;93.16;100523.13;5000600;28;20433;-67
2023/09/18 03:56:15;;;;;;;12.67;11.57;;;;;;;17.99;92.94;100526.44;5017147;28;20407;-67
2023/09/18 03:58:46;;;;;;;12.53;11.43;;;;;;;17.97;92.93;100520.38;4993847;28;20792;-68
2023/09/18 04:01:17;;;;;;;12.07;11.07;;;;;;;17.96;93.01;100520.66;5011249;28;20496;-67
2023/09/18 04:03:47;;;;;;;13.40;12.13;;;;;;;18.03;93.11;100521.25;5013784;28;20464;-67
2023/09/18 04:06:19;;;;;;;12.83;11.50;;;;;;;17.89;94.18;100514.56;4998368;28;20438;-66
2023/09/18 04:08:48;;;;;;;13.20;11.97;;;;;;;17.70;95.31;100508.63;4991875;28;20432;-67
2023/09/18 04:11:18;;;;;;;13.47;12.27;;;;;;;17.73;95.16;100513.56;4997548;28;20785;-67
2023/09/18 04:13:48;;;;;;;12.70;11.63;;;;;;;17.73;95.64;100506.19;4987908;28;20456;-66
2023/09/18 04:16:18;;;;;;;13.57;12.20;;;;;;;17.69;95.61;100494.13;4993237;28;20451;-66
2023/09/18 04:18:47;;;;;;;13.10;11.90;;;;;;;17.70;95.93;100494.94;4994838;28;20480;-67
2023/09/18 04:21:16;;;;;;;13.40;12.27;;;;;;;17.59;96.54;100494.00;5001266;28;20484;-67
2023/09/18 04:23:46;;;;;;;13.23;11.93;;;;;;;17.62;96.36;100488.00;4984205;28;20440;-67
2023/09/18 04:26:15;;;;;;;12.40;11.40;;;;;;;17.50;97.22;100490.06;4996913;28;20930;-68
2023/09/18 04:28:44;;;;;;;14.20;12.70;;;;;;;17.59;97.07;100483.06;4997389;28;20431;-67
2023/09/18 04:31:14;;;;;;;15.50;14.10;;;;;;;17.67;96.64;100484.53;4989929;28;20427;-67
2023/09/18 04:33:45;;;;;;;12.90;11.63;;;;;;;17.68;96.20;100487.00;4992601;28;20440;-67
2023/09/18 04:36:14;;;;;;;13.23;11.93;;;;;;;17.70;96.42;100484.00;4989354;28;20412;-68
2023/09/18 04:38:43;;;;;;;13.53;12.20;;;;;;;17.66;96.32;100482.88;4992157;28;20947;-67
2023/09/18 04:41:12;;;;;;;14.90;13.60;;;;;;;17.69;96.04;100474.97;4988290;28;20990;-67
2023/09/18 04:43:42;;;;;;;13.03;12.03;;;;;;;17.59;96.57;100477.59;4992791;28;20406;-67
2023/09/18 04:46:11;;;;;;;13.23;12.13;;;;;;;17.63;97.01;100477.91;4993276;28;20437;-66
2023/09/18 04:48:41;;;;;;;14.07;12.87;;;;;;;17.65;96.72;100476.56;4991754;28;20456;-67
2023/09/18 04:51:12;;;;;;;13.20;11.93;;;;;;;17.73;96.36;100467.88;4994379;28;20899;-66
2023/09/18 04:53:43;;;;;;;17.23;13.17;;;;;;;17.79;95.65;100472.31;4994845;28;20448;-66
2023/09/18 04:56:13;;;;;;;13.10;11.90;;;;;;;17.73;96.14;100478.81;4984820;28;20449;-65
2023/09/18 04:58:42;;;;;;;14.63;13.33;;;;;;;17.79;95.97;100476.97;4989834;28;20465;-66
2023/09/18 05:01:11;;;;;;;13.43;12.30;;;;;;;17.93;95.07;100477.34;4989018;28;20423;-68
2023/09/18 05:03:41;;;;;;;12.87;11.53;;;;;;;17.81;95.29;100475.59;4990237;28;20413;-66
2023/09/18 05:06:13;;;;;;;12.73;11.50;;;;;;;17.88;95.42;100466.38;4992763;28;20458;-66
2023/09/18 05:08:42;;;;;;;13.50;12.07;;;;;;;17.82;95.62;100470.97;4997314;28;20448;-67
2023/09/18 05:11:12;;;;;;;12.53;11.53;;;;;;;17.81;95.93;100466.59;4994959;28;20519;-66
2023/09/18 05:13:43;;;;;;;14.13;12.73;;;;;;;17.86;95.90;100463.09;4989640;28;20444;-67
2023/09/18 05:16:12;;;;;;;13.80;12.70;;;;;;;17.95;95.22;100464.25;4990256;28;20508;-66
2023/09/18 05:18:42;;;;;;;14.47;13.07;;;;;;;17.98;94.65;100456.34;4997486;28;20532;-67
2023/09/18 05:21:12;;;;;;;13.77;12.57;;;;;;;18.18;93.42;100452.94;4994012;28;20430;-67
2023/09/18 05:23:41;;;;;;;14.20;13.00;;;;;;;18.23;93.27;100455.72;4990336;28;20442;-66
2023/09/18 05:26:11;;;;;;;12.23;11.17;;;;;;;18.29;92.39;100449.19;4991329;28;20420;-68
2023/09/18 05:28:40;;;;;;;14.10;12.90;;;;;;;18.38;91.88;100450.34;4984651;28;20427;-67
2023/09/18 05:31:09;;;;;;;13.53;12.33;;;;;;;18.48;91.02;100447.66;4992514;28;20863;-67
2023/09/18 05:33:38;;;;;;;13.27;12.10;;;;;;;18.55;90.69;100453.75;4993988;28;20473;-67
2023/09/18 05:36:08;;;;;;;12.87;11.67;;;;;;;18.59;90.75;100459.50;4990363;28;20761;-67
2023/09/18 05:38:38;;;;;;;11.67;10.57;;;;;;;18.74;89.22;100456.03;5000202;28;20477;-67
2023/09/18 05:41:07;;;;;;;13.67;12.37;;;;;;;18.96;88.14;100449.31;4989085;28;20872;-67
2023/09/18 05:43:37;;;;;;;13.07;11.83;;;;;;;19.10;87.25;100444.13;4996925;28;20401;-66
2023/09/18 05:46:05;;;;;;;13.30;12.10;;;;;;;19.17;86.71;100443.91;4997623;28;20400;-67
2023/09/18 05:48:34;;;;;;;11.53;10.43;;;;;;;19.27;86.04;100435.66;4993220;28;20871;-67
2023/09/18 05:51:03;;;;;;;13.70;12.57;;;;;;;19.49;84.47;100431.66;4994522;28;20435;-66
2023/09/18 05:53:35;;;;;;;13.90;12.50;;;;;;;19.53;84.47;100432.75;4993168;28;20770;-67
2023/09/18 05:56:06;;;;;;;12.70;11.50;;;;;;;19.66;83.40;100436.03;4991204;28;20417;-67
2023/09/18 05:58:35;;;;;;;15.00;11.13;;;;;;;19.71;83.46;100430.56;4989751;28;20769;-67
2023/09/18 06:01:05;;;;;;;13.27;12.03;;;;;;;19.79;82.77;100419.06;4990915;28;20401;-66
2023/09/18 06:03:35;;;;;;;12.67;11.57;;;;;;;20.02;81.43;100412.19;4980288;28;21046;-66
2023/09/18 06:06:05;;;;;;;18.93;12.27;;;;;;;20.08;81.42;100411.06;4993003;28;20504;-66
2023/09/18 06:08:34;;;;;;;11.50;10.50;;;;;;;20.09;81.13;100402.53;4994891;28;20926;-67
2023/09/18 06:11:03;;;;;;;12.27;11.20;;;;;;;20.20;80.46;100400.59;5005526;28;20433;-67
2023/09/18 06:13:34;;;;;;;12.97;11.67;;;;;;;20.29;79.33;100399.75;4995108;28;20421;-67
2023/09/18 06:16:07;;;;;;;12.43;11.13;;;;;;;20.21;79.70;100400.34;4991032;28;20429;-67
2023/09/18 06:18:38;;;;;;;19.13;13.50;;;;;;;20.24;79.71;100404.44;5000242;28;20442;-67
2023/09/18 06:21:07;;;;;;;12.30;11.30;;;;;;;20.22;79.50;100391.00;4991112;28;20767;-67
2023/09/18 06:23:36;;;;;;;11.97;10.83;;;;;;;20.23;79.79;100389.09;4990240;28;20432;-67
2023/09/18 06:26:05;;;;;;;12.27;11.17;;;;;;;20.26;79.49;100392.09;4991389;28;20869;-67
2023/09/18 06:28:36;;;;;;;12.00;11.03;;;;;;;20.26;80.08;100383.84;4996347;28;20948;-67
2023/09/18 06:31:05;;;;;;;12.67;10.70;;;;;;;20.45;79.40;100394.25;4998536;28;20492;-68
2023/09/18 06:33:34;;;;;;;12.90;11.60;;;;;;;20.54;78.73;100387.09;4987391;28;20425;-67
2023/09/18 06:36:03;;;;;;;14.70;13.30;;;;;;;20.59;77.98;100384.31;4992859;28;20805;-68
2023/09/18 06:38:32;;;;;;;13.33;11.90;;;;;;;20.55;78.15;100389.56;4989019;28;20846;-67
2023/09/18 06:41:02;;;;;;;11.83;10.60;;;;;;;20.58;78.42;100382.66;4994778;28;20533;-68
2023/09/18 06:43:31;;;;;;;12.50;11.30;;;;;;;20.65;78.12;100374.97;4986445;28;20411;-66
2023/09/18 06:46:01;;;;;;;13.63;12.43;;;;;;;20.76;77.52;100374.66;4993327;28;20440;-67
2023/09/18 06:48:32;;;;;;;14.00;12.43;;;;;;;20.87;77.27;100369.91;4993544;28;20442;-67
2023/09/18 06:51:01;;;;;;;12.67;11.43;;;;;;;20.97;76.13;100369.84;4993783;28;20430;-66
2023/09/18 06:53:30;;;;;;;15.33;12.00;;;;;;;20.98;75.68;100357.75;4992140;28;20413;-66
2023/09/18 06:55:59;;;;;;;13.20;12.00;;;;;;;21.08;75.33;100362.34;4994006;28;20496;-67
2023/09/18 06:58:28;;;;;;;11.33;10.33;;;;;;;21.29;74.30;100361.16;4991623;28;20449;-67
2023/09/18 07:00:58;;;;;;;12.97;11.77;;;;;;;21.43;73.81;100355.84;4999799;28;20421;-68
2023/09/18 07:03:29;;;;;;;11.17;10.13;;;;;;;21.55;73.63;100354.34;4996260;28;20430;-67
2023/09/18 07:06:00;;;;;;;11.83;10.83;;;;;;;21.52;72.79;100348.59;4987034;28;20426;-67
2023/09/18 07:08:29;;;;;;;12.23;9.50;;;;;;;21.58;72.93;100348.28;4991286;28;20471;-66
2023/09/18 07:10:58;;;;;;;12.07;10.97;;;;;;;21.66;72.43;100339.41;4986491;28;20410;-67
2023/09/18 07:13:27;;;;;;;12.07;10.70;;;;;;;21.83;72.44;100338.97;4994078;28;20482;-66
2023/09/18 07:15:56;;;;;;;11.90;10.90;;;;;;;21.94;72.14;100335.03;4991796;28;20982;-67
2023/09/18 07:18:25;;;;;;;12.53;11.23;;;;;;;21.97;70.80;100323.44;4984275;28;20809;-67
2023/09/18 07:20:56;;;;;;;10.50;9.70;;;;;;;22.04;70.71;100323.91;4984387;28;20531;-68
2023/09/18 07:23:25;;;;;;;9.90;9.10;;;;;;;22.08;70.50;100324.97;4987237;28;20439;-67
2023/09/18 07:25:54;;;;;;;11.27;10.27;;;;;;;22.10;70.79;100324.69;4995390;28;21048;-67
2023/09/18 07:28:23;;;;;;;11.43;10.33;;;;;;;22.20;70.18;100326.50;4999892;28;20489;-66
2023/09/18 07:30:52;;;;;;;11.10;10.00;;;;;;;22.35;70.18;100329.91;4989045;28;20898;-67
2023/09/18 07:33:21;;;;;;;11.60;10.40;;;;;;;22.56;69.05;100319.44;4986769;28;20498;-67
2023/09/18 07:35:51;;;;;;;12.30;11.07;;;;;;;22.45;69.13;100321.50;4990261;28;20558;-67
2023/09/18 07:38:22;;;;;;;10.90;10.00;;;;;;;22.40;68.78;100320.75;4983595;28;20935;-65
2023/09/18 07:40:51;;;;;;;10.93;9.70;;;;;;;22.63;69.04;100314.38;4993534;28;20806;-66
2023/09/18 07:43:20;;;;;;;12.27;11.20;;;;;;;22.73;68.36;100316.22;4983286;28;20461;-66
2023/09/18 07:45:51;;;;;;;11.10;10.10;;;;;;;22.92;67.49;100328.91;4985548;28;20435;-67
2023/09/18 07:48:20;;;;;;;10.43;9.53;;;;;;;22.87;67.34;100315.19;4988019;28;20622;-67
2023/09/18 07:50:50;;;;;;;13.23;9.90;;;;;;;23.07;66.50;100316.84;4989378;28;20529;-67
2023/09/18 07:53:22;;;;;;;10.93;9.83;;;;;;;23.12;66.56;100310.41;4986067;28;20800;-67
2023/09/18 07:55:58;;;;;;;10.90;9.80;;;;;;;23.27;66.39;100307.41;4988134;28;20448;-67
2023/09/18 07:58:28;;;;;;;10.50;9.50;;;;;;;23.46;66.05;100316.53;4990367;28;20437;-67
2023/09/18 08:00:58;;;;;;;11.70;10.67;;;;;;;23.53;65.37;100316.94;4990798;28;20425;-68
2023/09/18 08:03:28;;;;;;;10.10;9.20;;;;;;;23.47;64.94;100311.81;4985122;28;20484;-67
2023/09/18 08:05:57;;;;;;;10.80;9.80;;;;;;;23.51;64.78;100307.34;4991173;28;20430;-68
2023/09/18 08:08:30;;;;;;;9.90;9.00;;;;;;;23.58;64.80;100311.34;4985715;28;20453;-67
2023/09/18 08:11:03;;;;;;;10.93;9.70;;;;;;;23.77;64.82;100305.75;4987538;28;20434;-67
2023/09/18 08:13:32;;;;;;;11.23;10.00;;;;;;;23.82;63.74;100298.19;4989388;28;20437;-68
2023/09/18 08:16:01;;;;;;;13.40;10.33;;;;;;;23.83;63.57;100290.72;4982740;28;20441;-67
2023/09/18 08:18:30;;;;;;;9.50;8.63;;;;;;;23.82;63.35;100292.66;4992537;28;20495;-67
2023/09/18 08:21:00;;;;;;;10.87;9.90;;;;;;;24.07;63.13;100293.31;4990817;28;20477;-67
2023/09/18 08:23:31;;;;;;;9.97;9.10;;;;;;;24.33;62.71;100297.25;4987044;28;20416;-66
2023/09/18 08:26:01;;;;;;;9.57;8.10;;;;;;;24.40;62.21;100297.66;4986397;28;20600;-67
2023/09/18 08:28:31;;;;;;;10.63;8.97;;;;;;;24.67;60.93;100282.97;4987410;28;20438;-67
2023/09/18 08:31:01;;;;;;;10.10;9.20;;;;;;;24.66;60.45;100279.38;4982223;28;20405;-67
2023/09/18 08:33:30;;;;;;;10.93;9.93;;;;;;;24.56;60.78;100268.53;4989984;28;20442;-68
2023/09/18 08:36:00;;;;;;;10.03;9.20;;;;;;;24.68;60.34;100288.22;4990223;28;20473;-67
2023/09/18 08:38:30;;;;;;;10.17;9.37;;;;;;;24.79;59.77;100293.50;4989503;28;20438;-68
2023/09/18 08:40:59;;;;;;;9.60;8.80;;;;;;;24.78;59.64;100287.16;4989699;28;20536;-66
2023/09/18 08:43:32;;;;;;;9.50;8.50;;;;;;;25.02;59.04;100282.19;4991162;28;20399;-67
2023/09/18 08:46:03;;;;;;;8.90;8.10;;;;;;;24.90;58.75;100272.78;4993867;28;20457;-66
2023/09/18 08:48:36;;;;;;;9.57;8.77;;;;;;;25.00;59.32;100280.88;4988793;28;21035;-67
2023/09/18 08:51:07;;;;;;;9.50;8.80;;;;;;;25.12;58.10;100275.59;5009460;28;20449;-66
2023/09/18 08:53:38;;;;;;;14.30;8.60;;;;;;;25.09;58.57;100276.22;4988567;28;20799;-67
2023/09/18 08:56:09;;;;;;;9.57;8.77;;;;;;;25.29;57.86;100261.88;4987217;28;20465;-67
2023/09/18 08:58:42;;;;;;;9.13;8.37;;;;;;;25.53;57.46;100267.91;4982796;28;20489;-66
2023/09/18 09:01:12;;;;;;;9.73;8.93;;;;;;;25.65;57.03;100261.81;4983699;28;20431;-67
2023/09/18 09:03:42;;;;;;;9.70;8.80;;;;;;;25.58;57.22;100250.34;4993517;28;20488;-66
2023/09/18 09:06:15;;;;;;;9.00;7.90;;;;;;;25.87;56.65;100258.16;4987947;28;20440;-66
2023/09/18 09:08:45;;;;;;;9.20;8.30;;;;;;;25.72;56.30;100242.78;4989382;28;20480;-66
2023/09/18 09:11:14;;;;;;;8.27;7.47;;;;;;;25.83;56.20;100254.41;4983292;28;20493;-67
2023/09/18 09:13:44;;;;;;;8.80;8.20;;;;;;;26.37;55.23;100237.34;4987159;28;20805;-68
2023/09/18 09:16:18;;;;;;;9.50;8.60;;;;;;;26.45;54.88;100232.13;4993764;28;20461;-68
2023/09/18 09:18:51;;;;;;;9.37;8.20;;;;;;;26.48;54.06;100228.72;4990350;28;20437;-67
2023/09/18 09:21:21;;;;;;;10.30;7.70;;;;;;;26.45;53.82;100223.78;4990341;28;20446;-67
2023/09/18 09:23:53;;;;;;;9.90;8.80;;;;;;;26.35;53.77;100222.97;4988112;28;20549;-66
2023/09/18 09:26:24;;;;;;;8.07;7.37;;;;;;;26.36;53.76;100221.00;4988816;28;20418;-67
2023/09/18 09:28:53;;;;;;;9.30;8.60;;;;;;;26.37;53.41;100217.94;4990627;28;20441;-68
2023/09/18 09:31:27;;;;;;;12.10;11.00;;;;;;;26.75;52.84;100211.75;4988256;28;20461;-67
2023/09/18 09:33:58;;;;;;;7.77;7.17;;;;;;;26.98;52.06;100210.47;4988551;28;20809;-66
2023/09/18 09:36:27;;;;;;;8.90;8.10;;;;;;;27.19;51.53;100199.50;4989338;28;20475;-66
2023/09/18 09:38:59;;;;;;;8.00;7.20;;;;;;;27.37;50.62;100205.84;4982733;28;20950;-67
2023/09/18 09:41:28;;;;;;;9.97;8.27;;;;;;;27.24;50.80;100200.16;4994268;28;21018;-67
2023/09/18 09:43:59;;;;;;;8.10;7.13;;;;;;;27.35;50.20;100188.69;4989508;28;20430;-66
2023/09/18 09:46:28;;;;;;;10.03;8.33;;;;;;;27.36;50.41;100182.78;4993200;28;20504;-66
2023/09/18 09:49:02;;;;;;;7.80;7.07;;;;;;;27.25;50.65;100187.09;4993638;28;20999;-67
2023/09/18 09:51:31;;;;;;;11.27;8.13;;;;;;;27.55;50.58;100180.47;4992237;28;20430;-66
2023/09/18 09:54:02;;;;;;;7.87;7.27;;;;;;;27.74;49.73;100187.63;4989972;28;20445;-66
2023/09/18 09:56:45;;;;;;;8.17;7.47;;;;;;;27.91;49.19;100188.34;4992589;28;20466;-69
2023/09/18 09:59:17;;;;;;;7.60;7.00;;;;;;;27.98;48.32;100194.19;4987401;28;20422;-67
2023/09/18 10:01:50;;;;;;;8.73;8.03;;;;;;;27.75;48.97;100184.47;4993616;28;20789;-66
2023/09/18 10:04:22;;;;;;;8.70;8.00;;;;;;;27.92;49.30;100189.16;4986700;28;20449;-66
2023/09/18 10:06:53;;;;;;;7.37;6.77;;;;;;;28.05;48.85;100186.13;4993861;28;20955;-65
2023/09/18 10:09:28;;;;;;;7.93;7.20;;;;;;;28.08;48.42;100179.06;4991814;28;20497;-66
2023/09/18 10:11:59;;;;;;;7.93;7.17;;;;;;;28.00;48.70;100175.19;4990388;28;20425;-67
2023/09/18 10:14:34;;;;;;;8.80;7.93;;;;;;;27.85;49.21;100170.22;4988082;28;20470;-66
2023/09/18 10:17:23;;;;;;;8.07;7.47;;;;;;;28.36;48.04;100162.75;4983390;28;20465;-67
2023/09/18 10:20:16;;;;;;;8.40;7.60;;;;;;;28.27;47.79;100167.56;4996392;28;20429;-67
2023/09/18 10:22:49;;;;;;;7.73;7.03;;;;;;;28.49;48.18;100170.00;4992939;28;20452;-67
2023/09/18 10:25:25;;;;;;;12.10;8.40;;;;;;;28.57;47.34;100163.53;4997313;28;20448;-66
2023/09/18 10:27:58;;;;;;;9.30;8.40;;;;;;;28.67;47.15;100160.34;4983494;28;20437;-67
2023/09/18 10:30:28;;;;;;;8.40;7.60;;;;;;;28.39;47.73;100164.84;4990945;28;20627;-67
2023/09/18 10:33:01;;;;;;;9.00;8.17;;;;;;;28.60;47.63;100174.03;4983896;28;20485;-67
2023/09/18 10:35:32;;;;;;;7.63;6.93;;;;;;;28.84;47.49;100190.88;4993325;28;20450;-66
2023/09/18 10:38:03;;;;;;;9.00;7.40;;;;;;;28.85;46.73;100195.25;4988365;28;20474;-67
2023/09/18 10:40:35;;;;;;;8.40;7.70;;;;;;;29.22;46.25;100199.03;4992776;28;20445;-67
2023/09/18 10:43:09;;;;;;;10.33;7.53;;;;;;;29.43;45.63;100196.22;4995569;28;20442;-66
2023/09/18 10:45:38;;;;;;;9.43;7.03;;;;;;;29.51;44.57;100189.72;4999040;28;20469;-67
2023/09/18 10:48:09;;;;;;;7.73;7.00;;;;;;;29.01;44.61;100197.44;4992096;28;20430;-67
2023/09/18 10:50:40;;;;;;;10.07;8.97;;;;;;;28.94;45.04;100204.38;4994621;28;20586;-68
2023/09/18 10:53:09;;;;;;;7.43;6.73;;;;;;;28.70;45.67;100190.31;4988964;28;20450;-65
2023/09/18 10:55:40;;;;;;;7.63;6.83;;;;;;;28.36;45.47;100187.78;4990569;28;20458;-67
2023/09/18 10:58:09;;;;;;;5.70;5.20;;;;;;;28.30;45.93;100178.00;4990264;28;20466;-68
2023/09/18 11:00:38;;;;;;;6.93;6.37;;;;;;;27.90;46.00;100170.03;4989626;28;20975;-67
2023/09/18 11:03:17;;;;;;;7.90;6.53;;;;;;;28.02;46.67;100167.34;4989124;28;20422;-67
2023/09/18 11:05:47;;;;;;;6.33;5.73;;;;;;;28.00;46.49;100179.94;4990033;28;20877;-66
2023/09/18 11:08:27;;;;;;;7.83;6.23;;;;;;;27.90;46.46;100180.31;4983187;28;20457;-67
2023/09/18 11:11:04;;;;;;;7.73;7.03;;;;;;;27.99;46.67;100183.88;4985345;28;20496;-67
2023/09/18 11:13:37;;;;;;;7.40;6.70;;;;;;;27.98;46.66;100185.84;4992262;28;20527;-67
2023/09/18 11:16:20;;;;;;;10.10;7.43;;;;;;;28.03;46.39;100185.63;4992481;28;20430;-67
2023/09/18 11:19:05;;;;;;;7.63;6.40;;;;;;;27.88;47.39;100183.47;4983719;28;20884;-68
2023/09/18 11:21:35;;;;;;;7.90;6.43;;;;;;;28.05;47.05;100182.53;4990899;28;20442;-67
2023/09/18 11:24:06;;;;;;;7.90;7.27;;;;;;;28.25;47.31;100190.13;4994451;28;20457;-67
2023/09/18 11:26:38;;;;;;;10.17;7.83;;;;;;;28.21;47.16;100188.38;4992906;28;21021;-67
2023/09/18 11:29:09;;;;;;;10.90;7.27;;;;;;;28.19;47.28;100193.44;4997525;28;20413;-67